createdAt,value
2017-07-28T00:01:00.557Z,98202
2017-07-28T00:03:28.606Z,98210
2017-07-28T00:05:56.679Z,98217
2017-07-28T00:08:24.739Z,98221
2017-07-28T00:10:52.821Z,98218
2017-07-28T00:13:20.890Z,98222
2017-07-28T00:15:48.954Z,98207
2017-07-28T00:25:39.456Z,98218
2017-07-28T00:28:07.527Z,98217
2017-07-28T00:30:35.590Z,98207
2017-07-28T00:33:03.663Z,98204
2017-07-28T00:35:31.726Z,98213
2017-07-28T00:37:59.803Z,98202
2017-07-28T00:40:27.872Z,98197
2017-07-28T00:42:55.943Z,98202
2017-07-28T00:45:24.015Z,98191
2017-07-28T00:47:52.087Z,98188
2017-07-28T00:50:20.169Z,98176
2017-07-28T00:52:48.232Z,98184
2017-07-28T00:58:13.278Z,98183
2017-07-28T01:00:41.348Z,98184
2017-07-28T01:03:09.419Z,98177
2017-07-28T01:05:37.814Z,98180
2017-07-28T01:08:05.880Z,98190
2017-07-28T01:10:33.958Z,98183
2017-07-28T01:13:02.027Z,98185
2017-07-28T01:15:30.090Z,98177
2017-07-28T01:17:58.184Z,98183
2017-07-28T01:20:26.251Z,98186
2017-07-28T01:22:54.322Z,98180
2017-07-28T01:25:22.390Z,98184
2017-07-28T01:27:50.462Z,98198
2017-07-28T01:30:18.534Z,98198
2017-07-28T01:32:46.615Z,98202
2017-07-28T01:35:14.726Z,98207
2017-07-28T01:37:42.800Z,98199
2017-07-28T01:40:10.867Z,98195
2017-07-28T01:42:38.976Z,98199
2017-07-28T01:45:07.037Z,98207
2017-07-28T01:47:35.111Z,98209
2017-07-28T01:50:03.177Z,98205
2017-07-28T01:52:31.259Z,98204
2017-07-28T01:54:59.335Z,98209
2017-07-28T01:57:27.407Z,98203
2017-07-28T01:59:55.475Z,98216
2017-07-28T02:02:24.105Z,98218
2017-07-28T02:04:52.166Z,98219
2017-07-28T02:07:20.240Z,98218
2017-07-28T02:09:48.310Z,98224
2017-07-28T02:12:16.378Z,98221
2017-07-28T02:14:44.455Z,98224
2017-07-28T02:17:12.528Z,98217
2017-07-28T02:19:40.584Z,98222
2017-07-28T02:22:08.659Z,98212
2017-07-28T02:24:36.733Z,98211
2017-07-28T02:27:04.823Z,98217
2017-07-28T02:29:32.883Z,98221
2017-07-28T02:32:00.960Z,98229
2017-07-28T02:34:29.022Z,98219
2017-07-28T02:36:57.095Z,98230
2017-07-28T02:39:25.160Z,98226
2017-07-28T02:41:53.236Z,98233
2017-07-28T02:44:21.342Z,98226
2017-07-28T02:46:50.194Z,98239
2017-07-28T02:49:18.251Z,98234
2017-07-28T02:51:46.323Z,98238
2017-07-28T02:54:14.397Z,98246
2017-07-28T02:56:42.467Z,98248
2017-07-28T02:59:10.539Z,98260
2017-07-28T03:01:38.610Z,98267
2017-07-28T03:04:06.686Z,98272
2017-07-28T03:06:34.756Z,98272
2017-07-28T03:09:02.833Z,98280
2017-07-28T03:11:30.899Z,98281
2017-07-28T03:13:58.974Z,98274
2017-07-28T03:16:27.047Z,98286
2017-07-28T03:18:55.122Z,98281
2017-07-28T03:21:23.189Z,98281
2017-07-28T03:23:51.263Z,98290
2017-07-28T03:26:19.319Z,98288
2017-07-28T03:28:47.451Z,98292
2017-07-28T03:31:15.561Z,98297
2017-07-28T03:33:44.410Z,98293
2017-07-28T03:36:12.484Z,98305
2017-07-28T03:38:40.550Z,98308
2017-07-28T03:41:09.427Z,98313
2017-07-28T03:43:37.524Z,98317
2017-07-28T03:46:05.600Z,98316
2017-07-28T03:48:33.683Z,98304
2017-07-28T03:51:02.518Z,98309
2017-07-28T03:53:30.654Z,98318
2017-07-28T03:55:59.506Z,98310
2017-07-28T03:58:27.576Z,98314
2017-07-28T04:00:55.664Z,98316
2017-07-28T04:03:23.739Z,98322
2017-07-28T04:05:51.803Z,98314
2017-07-28T04:08:19.884Z,98321
2017-07-28T04:10:47.952Z,98323
2017-07-28T04:13:16.032Z,98324
2017-07-28T04:15:44.095Z,98332
2017-07-28T04:18:12.172Z,98333
2017-07-28T04:23:37.274Z,98343
2017-07-28T04:26:05.346Z,98335
2017-07-28T04:28:33.424Z,98337
2017-07-28T04:31:01.515Z,98345
2017-07-28T04:33:30.366Z,98348
2017-07-28T04:35:58.435Z,98347
2017-07-28T04:38:26.507Z,98352
2017-07-28T04:40:54.583Z,98350
2017-07-28T04:43:22.674Z,98352
2017-07-28T04:45:50.751Z,98361
2017-07-28T04:48:18.819Z,98367
2017-07-28T04:50:46.891Z,98357
2017-07-28T04:53:14.960Z,98361
2017-07-28T04:55:43.035Z,98367
2017-07-28T04:58:11.099Z,98379
2017-07-28T05:00:39.195Z,98374
2017-07-28T05:03:07.255Z,98386
2017-07-28T05:05:35.327Z,98374
2017-07-28T05:08:03.403Z,98381
2017-07-28T05:10:31.471Z,98392
2017-07-28T05:12:59.547Z,98406
2017-07-28T05:15:27.614Z,98402
2017-07-28T05:17:55.687Z,98412
2017-07-28T05:20:23.757Z,98415
2017-07-28T05:22:51.827Z,98423
2017-07-28T05:25:19.908Z,98429
2017-07-28T05:27:47.978Z,98427
2017-07-28T05:30:16.051Z,98433
2017-07-28T05:32:44.126Z,98448
2017-07-28T05:35:12.199Z,98445
2017-07-28T05:37:40.294Z,98442
2017-07-28T05:40:09.143Z,98439
2017-07-28T05:42:37.211Z,98442
2017-07-28T05:45:05.295Z,98437
2017-07-28T05:47:33.358Z,98441
2017-07-28T05:50:01.455Z,98442
2017-07-28T05:52:29.526Z,98449
2017-07-28T05:54:57.614Z,98466
2017-07-28T05:57:25.684Z,98458
2017-07-28T05:59:53.767Z,98458
2017-07-28T06:02:22.624Z,98462
2017-07-28T06:04:50.703Z,98461
2017-07-28T06:07:18.775Z,98471
2017-07-28T06:09:46.902Z,98469
2017-07-28T06:12:14.966Z,98481
2017-07-28T06:14:43.071Z,98491
2017-07-28T06:17:11.143Z,98485
2017-07-28T06:19:39.213Z,98483
2017-07-28T06:22:07.287Z,98496
2017-07-28T06:24:35.402Z,98502
2017-07-28T06:27:03.483Z,98503
2017-07-28T06:29:32.347Z,98507
2017-07-28T06:32:00.431Z,98503
2017-07-28T06:34:28.498Z,98510
2017-07-28T06:36:56.571Z,98501
2017-07-28T06:39:24.638Z,98503
2017-07-28T06:41:52.747Z,98505
2017-07-28T06:44:21.575Z,98504
2017-07-28T06:46:49.646Z,98503
2017-07-28T06:49:17.726Z,98514
2017-07-28T06:51:45.794Z,98513
2017-07-28T06:54:13.875Z,98523
2017-07-28T06:56:41.943Z,98531
2017-07-28T06:59:10.014Z,98531
2017-07-28T07:01:38.081Z,98542
2017-07-28T07:04:06.155Z,98544
2017-07-28T07:06:34.226Z,98544
2017-07-28T07:09:02.297Z,98542
2017-07-28T07:11:30.457Z,98547
2017-07-28T07:13:58.567Z,98546
2017-07-28T07:16:26.638Z,98548
2017-07-28T07:18:54.706Z,98554
2017-07-28T07:21:22.809Z,98561
2017-07-28T07:23:50.878Z,98570
2017-07-28T07:26:18.943Z,98563
2017-07-28T07:28:47.016Z,98558
2017-07-28T07:31:15.103Z,98557
2017-07-28T07:33:43.167Z,98567
2017-07-28T07:36:11.243Z,98553
2017-07-28T07:38:39.311Z,98553
2017-07-28T07:41:07.386Z,98551
2017-07-28T07:43:35.452Z,98557
2017-07-28T07:46:03.544Z,98562
2017-07-28T07:48:32.379Z,98553
2017-07-28T07:51:00.450Z,98554
2017-07-28T07:53:28.524Z,98549
2017-07-28T07:55:56.593Z,98555
2017-07-28T07:58:25.439Z,98560
2017-07-28T08:00:54.275Z,98561
2017-07-28T08:03:22.347Z,98561
2017-07-28T08:05:50.419Z,98564
2017-07-28T08:08:18.491Z,98569
2017-07-28T08:10:46.564Z,98570
2017-07-28T08:13:14.648Z,98574
2017-07-28T08:15:43.491Z,98578
2017-07-28T08:18:11.555Z,98570
2017-07-28T08:20:40.377Z,98567
2017-07-28T08:23:08.443Z,98580
2017-07-28T08:25:36.508Z,98568
2017-07-28T08:28:04.566Z,98575
2017-07-28T08:30:32.653Z,98571
2017-07-28T08:33:01.474Z,98560
2017-07-28T08:35:29.547Z,98568
2017-07-28T08:37:57.615Z,98575
2017-07-28T08:40:25.684Z,98580
2017-07-28T08:42:53.757Z,98588
2017-07-28T08:45:21.830Z,98601
2017-07-28T08:47:49.894Z,98602
2017-07-28T08:50:17.973Z,98607
2017-07-28T08:52:46.046Z,98587
2017-07-28T08:55:14.118Z,98588
2017-07-28T08:57:42.191Z,98599
2017-07-28T09:00:10.251Z,98612
2017-07-28T09:02:38.336Z,98607
2017-07-28T09:05:06.410Z,98610
2017-07-28T09:07:34.479Z,98621
2017-07-28T09:10:02.553Z,98610
2017-07-28T09:12:30.627Z,98600
2017-07-28T09:14:58.696Z,98610
2017-07-28T09:17:26.770Z,98614
2017-07-28T09:19:54.840Z,98622
2017-07-28T09:22:22.915Z,98627
2017-07-28T09:24:50.971Z,98636
2017-07-28T09:29:53.535Z,98638
2017-07-28T09:32:21.603Z,98641
2017-07-28T09:34:50.447Z,98637
2017-07-28T09:37:18.507Z,98637
2017-07-28T09:39:46.585Z,98651
2017-07-28T09:42:14.642Z,98653
2017-07-28T09:44:42.710Z,98659
2017-07-28T09:47:10.780Z,98654
2017-07-28T09:49:38.859Z,98652
2017-07-28T09:52:06.919Z,98653
2017-07-28T09:54:34.987Z,98647
2017-07-28T09:57:03.047Z,98651
2017-07-28T09:59:31.887Z,98652
2017-07-28T10:01:59.954Z,98653
2017-07-28T10:04:28.016Z,98648
2017-07-28T10:06:56.087Z,98656
2017-07-28T10:09:24.151Z,98657
2017-07-28T10:11:52.215Z,98656
2017-07-28T10:14:21.040Z,98663
2017-07-28T10:16:49.115Z,98675
2017-07-28T10:19:17.178Z,98679
2017-07-28T10:21:45.250Z,98683
2017-07-28T10:24:13.317Z,98693
2017-07-28T10:26:41.383Z,98690
2017-07-28T10:29:09.448Z,98685
2017-07-28T10:31:37.527Z,98683
2017-07-28T10:34:05.583Z,98668
2017-07-28T10:36:33.647Z,98685
2017-07-28T10:39:02.482Z,98681
2017-07-28T10:41:30.549Z,98678
2017-07-28T10:43:58.618Z,98680
2017-07-28T10:46:26.683Z,98682
2017-07-28T10:48:54.762Z,98680
2017-07-28T10:51:22.822Z,98693
2017-07-28T10:53:50.914Z,98678
2017-07-28T10:56:18.979Z,98683
2017-07-28T10:58:47.055Z,98679
2017-07-28T11:01:15.124Z,98678
2017-07-28T11:03:43.196Z,98684
2017-07-28T11:06:11.268Z,98693
2017-07-28T11:08:39.754Z,98680
2017-07-28T11:11:07.822Z,98675
2017-07-28T11:13:36.155Z,98686
2017-07-28T11:16:04.994Z,98696
2017-07-28T11:18:33.064Z,98693
2017-07-28T11:21:02.018Z,98681
2017-07-28T11:23:30.855Z,98673
2017-07-28T11:25:58.950Z,98677
2017-07-28T11:28:27.015Z,98678
2017-07-28T11:30:55.095Z,98681
2017-07-28T11:33:23.158Z,98677
2017-07-28T11:35:51.232Z,98681
2017-07-28T11:38:19.694Z,98689
2017-07-28T11:40:47.779Z,98678
2017-07-28T11:43:15.843Z,98687
2017-07-28T11:45:44.238Z,98680
2017-07-28T11:48:12.311Z,98684
2017-07-28T11:50:40.383Z,98681
2017-07-28T11:53:08.458Z,98689
2017-07-28T11:55:36.519Z,98700
2017-07-28T11:58:04.598Z,98708
2017-07-28T12:00:32.659Z,98699
2017-07-28T12:03:00.734Z,98703
2017-07-28T12:05:28.797Z,98706
2017-07-28T12:07:56.866Z,98704
2017-07-28T12:10:25.167Z,98712
2017-07-28T12:12:53.239Z,98708
2017-07-28T12:15:21.310Z,98702
2017-07-28T12:17:49.376Z,98700
2017-07-28T12:20:17.448Z,98716
2017-07-28T12:22:45.510Z,98711
2017-07-28T12:25:13.587Z,98711
2017-07-28T12:27:41.649Z,98716
2017-07-28T12:30:09.721Z,98721
2017-07-28T12:32:37.793Z,98716
2017-07-28T12:35:05.867Z,98719
2017-07-28T12:37:33.922Z,98716
2017-07-28T12:40:02.014Z,98718
2017-07-28T12:42:30.082Z,98719
2017-07-28T12:44:58.464Z,98720
2017-07-28T12:47:26.534Z,98717
2017-07-28T12:49:54.614Z,98717
2017-07-28T12:52:22.799Z,98721
2017-07-28T12:54:50.878Z,98712
2017-07-28T12:57:18.951Z,98714
2017-07-28T12:59:47.031Z,98707
2017-07-28T13:02:15.090Z,98714
2017-07-28T13:04:43.155Z,98709
2017-07-28T13:07:11.239Z,98713
2017-07-28T13:09:39.312Z,98707
2017-07-28T13:12:07.392Z,98716
2017-07-28T13:14:35.455Z,98715
2017-07-28T13:17:03.535Z,98719
2017-07-28T13:19:31.598Z,98713
2017-07-28T13:22:00.293Z,98701
2017-07-28T13:24:28.377Z,98707
2017-07-28T13:26:56.496Z,98705
2017-07-28T13:29:24.560Z,98705
2017-07-28T13:31:52.626Z,98707
2017-07-28T13:34:21.462Z,98709
2017-07-28T13:36:49.531Z,98720
2017-07-28T13:39:17.608Z,98719
2017-07-28T13:41:45.676Z,98716
2017-07-28T13:44:13.746Z,98716
2017-07-28T13:46:47.366Z,98723
2017-07-28T13:49:15.434Z,98714
2017-07-28T13:51:43.504Z,98722
2017-07-28T13:54:11.587Z,98711
2017-07-28T13:56:39.655Z,98707
2017-07-28T13:59:07.719Z,98701
2017-07-28T14:01:35.796Z,98703
2017-07-28T14:04:03.866Z,98708
2017-07-28T14:06:31.939Z,98705
2017-07-28T14:09:00.012Z,98711
2017-07-28T14:11:28.078Z,98713
2017-07-28T14:13:56.145Z,98712
2017-07-28T14:16:24.228Z,98715
2017-07-28T14:18:52.299Z,98709
2017-07-28T14:21:20.371Z,98707
2017-07-28T14:23:48.435Z,98714
2017-07-28T14:26:16.516Z,98718
2017-07-28T14:28:44.580Z,98713
2017-07-28T14:31:12.670Z,98712
2017-07-28T14:33:40.749Z,98717
2017-07-28T14:36:08.824Z,98710
2017-07-28T14:38:36.895Z,98717
2017-07-28T14:41:04.959Z,98709
2017-07-28T14:43:33.034Z,98706
2017-07-28T14:46:01.102Z,98714
2017-07-28T14:48:29.183Z,98718
2017-07-28T14:50:57.238Z,98708
2017-07-28T14:53:25.318Z,98707
2017-07-28T14:55:53.385Z,98709
2017-07-28T14:58:21.454Z,98707
2017-07-28T15:00:49.528Z,98707
2017-07-28T15:03:17.603Z,98714
2017-07-28T15:05:45.671Z,98708
2017-07-28T15:08:13.739Z,98709
2017-07-28T15:10:41.819Z,98713
2017-07-28T15:13:09.890Z,98712
2017-07-28T15:15:37.962Z,98717
2017-07-28T15:18:06.027Z,98712
2017-07-28T15:20:34.107Z,98710
2017-07-28T15:23:02.175Z,98711
2017-07-28T15:25:30.230Z,98716
2017-07-28T15:27:58.301Z,98726
2017-07-28T15:30:26.362Z,98721
2017-07-28T15:32:54.446Z,98713
2017-07-28T15:35:22.502Z,98716
2017-07-28T15:37:50.579Z,98719
2017-07-28T15:40:18.639Z,98721
2017-07-28T15:42:46.714Z,98717
2017-07-28T15:45:14.780Z,98712
2017-07-28T15:47:43.620Z,98714
2017-07-28T15:50:11.687Z,98720
2017-07-28T15:52:39.763Z,98720
2017-07-28T15:55:07.835Z,98717
2017-07-28T15:57:35.906Z,98719
2017-07-28T16:00:03.982Z,98726
2017-07-28T16:02:32.974Z,98723
2017-07-28T16:05:01.042Z,98725
2017-07-28T16:07:29.185Z,98729
2017-07-28T16:09:57.242Z,98737
2017-07-28T16:12:25.306Z,98733
2017-07-28T16:14:53.371Z,98739
2017-07-28T16:17:22.615Z,98735
2017-07-28T16:19:50.690Z,98747
2017-07-28T16:22:18.760Z,98747
2017-07-28T16:24:46.841Z,98741
2017-07-28T16:27:14.952Z,98737
2017-07-28T16:29:43.005Z,98739
2017-07-28T16:32:11.075Z,98749
2017-07-28T16:34:39.143Z,98750
2017-07-28T16:37:07.215Z,98749
2017-07-28T16:39:35.282Z,98750
2017-07-28T16:42:03.467Z,98750
2017-07-28T16:44:31.536Z,98754
2017-07-28T16:46:59.602Z,98752
2017-07-28T16:49:27.682Z,98756
2017-07-28T16:51:55.759Z,98763
2017-07-28T16:54:23.823Z,98752
2017-07-28T16:56:51.894Z,98756
2017-07-28T16:59:19.962Z,98758
2017-07-28T17:01:48.039Z,98760
2017-07-28T17:04:16.102Z,98761
2017-07-28T17:06:44.192Z,98759
2017-07-28T17:09:12.251Z,98758
2017-07-28T17:11:40.307Z,98757
2017-07-28T17:14:08.383Z,98759
2017-07-28T17:16:36.438Z,98753
2017-07-28T17:19:04.503Z,98743
2017-07-28T17:21:32.619Z,98749
2017-07-28T17:24:00.712Z,98756
2017-07-28T17:26:28.778Z,98756
2017-07-28T17:28:56.861Z,98752
2017-07-28T17:31:24.920Z,98757
2017-07-28T17:33:52.979Z,98761
2017-07-28T17:36:21.058Z,98760
2017-07-28T17:38:49.127Z,98772
2017-07-28T17:41:17.199Z,98773
2017-07-28T17:43:45.259Z,98784
2017-07-28T17:46:13.330Z,98778
2017-07-28T17:48:41.395Z,98780
2017-07-28T17:51:09.467Z,98774
2017-07-28T17:53:37.537Z,98775
2017-07-28T17:56:05.612Z,98784
2017-07-28T17:58:33.670Z,98777
2017-07-28T18:01:01.753Z,98778
2017-07-28T18:03:29.809Z,98787
2017-07-28T18:05:57.870Z,98781
2017-07-28T18:08:25.942Z,98784
2017-07-28T18:10:53.997Z,98788
2017-07-28T18:13:22.066Z,98780
2017-07-28T18:15:50.131Z,98778
2017-07-28T18:18:18.195Z,98788
2017-07-28T18:20:46.258Z,98795
2017-07-28T18:23:14.327Z,98794
2017-07-28T18:25:42.404Z,98800
2017-07-28T18:28:10.471Z,98797
2017-07-28T18:30:38.543Z,98803
2017-07-28T18:33:06.615Z,98804
2017-07-28T18:35:34.682Z,98805
2017-07-28T18:38:03.299Z,98809
2017-07-28T18:40:31.369Z,98806
2017-07-28T18:42:59.427Z,98814
2017-07-28T18:45:27.507Z,98822
2017-07-28T18:47:55.580Z,98826
2017-07-28T18:50:23.647Z,98823
2017-07-28T18:52:51.712Z,98831
2017-07-28T18:55:19.906Z,98828
2017-07-28T18:57:47.967Z,98835
2017-07-28T19:00:16.034Z,98841
2017-07-28T19:02:44.105Z,98846
2017-07-28T19:05:12.172Z,98834
2017-07-28T19:07:40.230Z,98847
2017-07-28T19:10:08.295Z,98858
2017-07-28T19:12:36.364Z,98863
2017-07-28T19:15:04.435Z,98869
2017-07-28T19:17:32.507Z,98871
2017-07-28T19:20:00.580Z,98872
2017-07-28T19:22:28.651Z,98882
2017-07-28T19:24:56.711Z,98884
2017-07-28T19:27:24.796Z,98878
2017-07-28T19:29:52.855Z,98879
2017-07-28T19:32:20.926Z,98886
2017-07-28T19:34:48.994Z,98885
2017-07-28T19:37:17.071Z,98895
2017-07-28T19:39:45.146Z,98893
2017-07-28T19:42:13.380Z,98889
2017-07-28T19:44:41.438Z,98899
2017-07-28T19:47:09.503Z,98892
2017-07-28T19:49:37.574Z,98892
2017-07-28T19:52:05.648Z,98901
2017-07-28T19:54:33.723Z,98905
2017-07-28T19:57:01.906Z,98900
2017-07-28T19:59:29.980Z,98903
2017-07-28T20:01:58.043Z,98897
2017-07-28T20:04:26.110Z,98898
2017-07-28T20:06:54.204Z,98908
2017-07-28T20:09:22.283Z,98905
2017-07-28T20:11:50.339Z,98908
2017-07-28T20:14:18.822Z,98898
2017-07-28T20:16:46.890Z,98897
2017-07-28T20:19:14.955Z,98910
2017-07-28T20:21:43.031Z,98911
2017-07-28T20:24:11.094Z,98911
2017-07-28T20:26:39.175Z,98912
2017-07-28T20:29:07.243Z,98902
2017-07-28T20:31:35.311Z,98905
2017-07-28T20:34:03.375Z,98902
2017-07-28T20:36:31.455Z,98903
2017-07-28T20:38:59.512Z,98916
2017-07-28T20:41:27.596Z,98910
2017-07-28T20:43:55.653Z,98907
2017-07-28T20:46:23.728Z,98915
2017-07-28T20:48:51.782Z,98913
2017-07-28T20:51:19.855Z,98912
2017-07-28T20:53:47.925Z,98914
2017-07-28T20:56:15.990Z,98902
2017-07-28T20:58:44.059Z,98910
2017-07-28T21:01:12.114Z,98904
2017-07-28T21:03:40.958Z,98906
2017-07-28T21:06:09.006Z,98910
2017-07-28T21:08:37.072Z,98908
2017-07-28T21:11:05.125Z,98911
2017-07-28T21:13:51.134Z,98918
2017-07-28T21:16:19.191Z,98916
2017-07-28T21:18:48.096Z,98915
2017-07-28T21:21:16.154Z,98921
2017-07-28T21:23:44.983Z,98928
2017-07-28T21:26:13.309Z,98925
2017-07-28T21:28:41.366Z,98922
2017-07-28T21:31:09.442Z,98917
2017-07-28T21:33:37.700Z,98918
2017-07-28T21:36:06.214Z,98926
2017-07-28T21:38:34.278Z,98915
2017-07-28T21:41:02.346Z,98902
2017-07-28T21:43:30.539Z,98905
2017-07-28T21:45:59.381Z,98914
2017-07-28T21:48:27.528Z,98924
2017-07-28T21:50:55.599Z,98921
2017-07-28T21:53:23.659Z,98928
2017-07-28T21:55:52.506Z,98921
2017-07-28T21:58:20.802Z,98920
2017-07-28T22:00:48.871Z,98920
2017-07-28T22:03:16.948Z,98915
2017-07-28T22:05:45.014Z,98920
2017-07-28T22:08:13.095Z,98920
2017-07-28T22:10:41.157Z,98926
2017-07-28T22:13:09.231Z,98924
2017-07-28T22:15:37.301Z,98924
2017-07-28T22:18:05.378Z,98928
2017-07-28T22:20:33.435Z,98920
2017-07-28T22:23:01.502Z,98928
2017-07-28T22:25:29.579Z,98922
2017-07-28T22:27:57.646Z,98918
2017-07-28T22:30:25.718Z,98912
2017-07-28T22:32:53.787Z,98915
2017-07-28T22:35:21.859Z,98917
2017-07-28T22:37:49.922Z,98923
2017-07-28T22:40:18.029Z,98927
2017-07-28T22:42:46.088Z,98923
2017-07-28T22:45:14.147Z,98932
2017-07-28T22:47:42.226Z,98926
2017-07-28T22:50:10.299Z,98914
2017-07-28T22:52:38.372Z,98913
2017-07-28T22:55:06.447Z,98915
2017-07-28T22:57:34.519Z,98917
2017-07-28T23:00:02.599Z,98907
2017-07-28T23:02:30.666Z,98910
2017-07-28T23:04:58.730Z,98915
2017-07-28T23:07:26.806Z,98913
2017-07-28T23:09:54.891Z,98907
2017-07-28T23:12:23.963Z,98906
2017-07-28T23:14:52.029Z,98913
2017-07-28T23:17:20.102Z,98920
2017-07-28T23:19:48.167Z,98919
2017-07-28T23:22:16.243Z,98916
2017-07-28T23:24:44.322Z,98911
2017-07-28T23:27:12.386Z,98916
2017-07-28T23:29:40.458Z,98914
2017-07-28T23:32:08.534Z,98914
2017-07-28T23:34:36.637Z,98915
2017-07-28T23:37:04.710Z,98916
2017-07-28T23:39:32.783Z,98916
2017-07-28T23:42:01.067Z,98912
2017-07-28T23:44:29.127Z,98918
2017-07-28T23:46:57.204Z,98917
2017-07-28T23:49:25.442Z,98902
2017-07-28T23:51:53.515Z,98909
2017-07-28T23:54:21.586Z,98917
2017-07-28T23:56:49.659Z,98916
2017-07-28T23:59:17.731Z,98900
